Kezdőlap
METAR-TAF:

METAR-TAF

Repülőterek :

Athén, Görögország

Elefthériosz Venizélosz nemzetközi repülőtér

földrajzi szélesség: 37-56N, földrajzi hosszúság: 023-56E, magasság: 94 m

Jelenlegi meteorológiai megfigyelések

A jelentés 34 perccel ezelõtt készült, 22:20 UTC
Kelet-délkeleti szél 4 kt, keleti és dél-délkeleti között változik
Hőmérséklet 16°C
Páratartalom 55%
Légköri nyomás 1016 hPa
Látótávolság 10 km, vagy több
felhőtlen 1500 m magasságban, és nincs gomolyfelhõ

METAR: LGAV 242220Z 11004KT 090V160 CAVOK 16/07 Q1016 NOSIG

Idő: 01:54 (22:54 UTC)

Előrejelzés

A jelentés 5 órával és 54 perccel ezelõtt készült, 17:00 UTC
Az előrejelzés 24-én 18 óra UTC és 25-én 18 óra UTC között érvényes
Különbözõ irányokból fújó szél 3 kt
Látótávolság 10 km, vagy több
Kevés felhő 3000 lábon
25-én 08 óra UTC és 25-én 10 óra UTC között fokozatosan kialakuló
Keleti szél 10 kt

TAF: LGAV 241700Z 2418/2518 VRB03KT 9999 FEW030 BECMG 2508/2510 08010KT

Meteorológiai megfigyelések és előrejelzések több, mint 4000 repülőtéren (METAR és TAF jelentéseket).

A térképen piros és sárga pontok jelzik az elérhető meteorológiai állomásokat.

Mozgassa az egeret a pont fölött, hogy megjelenjen az állomás neve.

Azután kattintson az időjárási megfigyelések és előrejelzések megtekintéséhez.

A térkép megváltoztatása: kattintson a fekete keresztel jelölt zöld gombra ráközelítéshez, a vonallal jelölt zöld gombra távolításhoz, vagy a zöld nyilakra a szomszédos térképek eléréséhez.


METAR-TAF: